This is the latest recevied weather packets stored in our database for station/object URMT. If no packets are shown the sender has not sent any weather packets the latest 1 day(s).
| Time | Temp. | Humidity | Pressure | Rain* | Wind** | Luminosity | Snow |
|---|---|---|---|---|---|---|---|
| 1778110245 | 11.67° C | 62% | 1017 hPa | - | - | - | - |
| 1778108444 | 11.67° C | 62% | 1017 hPa | - | - | - | - |
| 1778106644 | 11.67° C | 62% | 1017 hPa | - | - | - | - |
| 1778101245 | 12.78° C | 58% | 1017 hPa | - | - | - | - |
| 1778099446 | 12.78° C | 58% | 1016 hPa | - | - | - | - |
| 1778097647 | 12.78° C | 58% | 1016 hPa | - | - | - | - |
| 1778095845 | 11.67° C | 66% | 1017 hPa | - | - | - | - |
| 1778094045 | 11.67° C | 71% | 1017 hPa | - | - | - | - |
| 1778090445 | 12.78° C | 66% | 1016 hPa | - | - | - | - |
| 1778085046 | 12.78° C | 66% | 1016 hPa | - | - | - | - |
| 1778083246 | 13.89° C | 62% | 1016 hPa | - | - | - | - |
| 1778076046 | 15° C | 54% | 1015 hPa | - | - | - | - |
| 1778074246 | 15.56° C | 51% | 1015 hPa | - | - | - | - |
| 1778068845 | 15.56° C | 51% | 1015 hPa | - | - | - | - |
| 1778067045 | 15.56° C | 47% | 1015 hPa | - | - | - | - |
| 1778065245 | 15° C | 54% | 1015 hPa | - | - | - | - |
| 1778061647 | 13.89° C | 58% | 1016 hPa | - | - | - | - |
| 1778059846 | 12.78° C | 58% | 1016 hPa | - | - | - | - |
| 1778052645 | 12.78° C | 58% | 1016 hPa | - | - | - | - |
| 1778050845 | 12.78° C | 58% | 1016 hPa | - | - | - | - |
| 1778047246 | 11.67° C | 71% | 1015 hPa | - | - | - | - |
| 1778045445 | 10.56° C | 76% | 1015 hPa | - | - | - | - |
| 1778041846 | 10° C | 81% | 1015 hPa | - | - | - | - |
| 1778040045 | 8.89° C | 87% | 1015 hPa | - | - | - | - |
| 1778038246 | 8.89° C | 87% | 1015 hPa | - | - | - | - |
* Rain since midnight (hover to see other rain measurements)
** Current wind speed in m/s (hover to see current wind gust speed)